createdAt,value
2023-05-05T03:44:20.197Z,9.38
2023-05-05T03:47:24.723Z,9.38
2023-05-05T03:50:27.622Z,8.80
2023-05-05T03:53:31.356Z,8.82
2023-05-05T03:56:35.652Z,8.86
2023-05-05T03:59:38.540Z,8.94
2023-05-05T04:02:41.879Z,9.03
2023-05-05T04:05:45.234Z,9.13
2023-05-05T04:08:47.932Z,9.32
2023-05-05T04:11:51.140Z,9.47
2023-05-05T04:14:54.833Z,9.61
2023-05-05T04:17:58.134Z,9.77
2023-05-05T04:21:01.434Z,9.95
2023-05-05T04:24:05.189Z,10.11
2023-05-05T04:27:08.151Z,10.26
2023-05-05T04:30:11.725Z,10.36
2023-05-05T04:33:15.067Z,10.44
2023-05-05T04:36:19.168Z,10.52
2023-05-05T04:39:22.742Z,10.62
2023-05-05T04:42:26.550Z,10.74
2023-05-05T04:45:29.200Z,10.87
2023-05-05T04:48:32.234Z,10.99
2023-05-05T04:51:34.972Z,11.10
2023-05-05T04:54:37.922Z,11.21
2023-05-05T04:57:40.793Z,11.33
2023-05-05T05:00:43.903Z,11.41
2023-05-05T05:03:46.912Z,11.47
2023-05-05T05:06:49.764Z,11.45
2023-05-05T05:09:52.260Z,11.55
2023-05-05T05:12:55.232Z,11.67
2023-05-05T05:15:57.989Z,11.80
2023-05-05T05:19:01.788Z,12.01
2023-05-05T05:22:05.580Z,12.18
2023-05-05T05:25:09.373Z,12.34
2023-05-05T05:28:12.600Z,12.54
2023-05-05T05:31:16.090Z,12.68
2023-05-05T05:34:19.022Z,12.87
2023-05-05T05:37:22.109Z,13.05
2023-05-05T05:40:25.444Z,13.22
2023-05-05T05:43:28.373Z,13.43
2023-05-05T05:46:31.184Z,13.66
2023-05-05T05:49:34.521Z,13.82
2023-05-05T05:52:37.301Z,13.86
2023-05-05T05:55:41.096Z,14.02
2023-05-05T05:58:45.227Z,14.14
2023-05-05T06:01:48.113Z,14.31
2023-05-05T06:04:51.114Z,14.48
2023-05-05T06:07:53.763Z,14.61
2023-05-05T06:10:57.085Z,14.56
2023-05-05T06:13:59.736Z,14.66
2023-05-05T06:17:03.076Z,14.61
2023-05-05T06:20:07.172Z,14.71
2023-05-05T06:23:10.714Z,14.86
2023-05-05T06:26:14.329Z,15.08
2023-05-05T06:29:17.378Z,15.21
2023-05-05T06:32:20.453Z,15.33
2023-05-05T06:35:23.396Z,15.44
2023-05-05T06:38:26.121Z,15.45
2023-05-05T06:41:28.971Z,15.55
2023-05-05T06:44:31.541Z,15.68
2023-05-05T06:47:34.556Z,15.83
2023-05-05T06:50:39.656Z,16.07
2023-05-05T06:53:42.772Z,16.23
2023-05-05T06:56:45.451Z,16.19
2023-05-05T06:59:48.252Z,16.42
2023-05-05T07:02:50.854Z,16.74
2023-05-05T07:05:54.998Z,17.04
2023-05-05T07:08:58.088Z,17.33
2023-05-05T07:12:01.997Z,17.66
2023-05-05T07:15:19.156Z,17.59
2023-05-05T07:18:27.011Z,17.65
2023-05-05T07:21:29.739Z,17.73
2023-05-05T07:24:32.654Z,17.86
2023-05-05T07:27:37.293Z,17.56
2023-05-05T07:30:40.343Z,17.55
2023-05-05T07:33:43.731Z,17.50
2023-05-05T07:36:46.643Z,17.62
2023-05-05T07:39:49.262Z,17.64
2023-05-05T07:42:52.285Z,17.77
2023-05-05T07:45:55.379Z,17.93
2023-05-05T07:48:58.192Z,18.07
2023-05-05T07:52:03.959Z,18.03
2023-05-05T07:55:07.523Z,18.34
2023-05-05T07:58:11.198Z,18.46
2023-05-05T08:01:14.250Z,18.59
2023-05-05T08:04:17.257Z,18.57
2023-05-05T08:07:20.300Z,18.47
2023-05-05T08:10:24.312Z,18.46
2023-05-05T08:13:28.538Z,18.63
2023-05-05T08:16:31.682Z,18.83
2023-05-05T08:19:34.178Z,18.74
2023-05-05T08:22:36.993Z,18.64
2023-05-05T08:25:39.657Z,18.69
2023-05-05T08:28:42.713Z,18.84
2023-05-05T08:31:45.550Z,18.98
2023-05-05T08:34:48.281Z,18.89
2023-05-05T08:37:51.783Z,18.98
2023-05-05T08:40:54.846Z,19.04
2023-05-05T08:43:57.614Z,19.01
2023-05-05T08:47:01.234Z,19.17
2023-05-05T08:50:06.017Z,19.14
2023-05-05T08:53:26.516Z,19.34
2023-05-05T08:56:38.830Z,19.55
2023-05-05T08:59:42.658Z,19.82
2023-05-05T09:02:47.297Z,19.74
2023-05-05T09:05:51.138Z,20.02
2023-05-05T09:08:54.257Z,19.76
2023-05-05T09:11:59.902Z,19.89
2023-05-05T09:15:03.958Z,20.17
2023-05-05T09:18:12.151Z,20.44
2023-05-05T09:21:22.895Z,20.15
2023-05-05T09:24:26.762Z,19.83
2023-05-05T09:27:29.500Z,20.25
2023-05-05T09:30:32.498Z,20.63
2023-05-05T09:33:35.202Z,20.89
2023-05-05T09:36:48.933Z,21.21
2023-05-05T09:39:55.551Z,21.41
2023-05-05T09:43:02.923Z,21.69
2023-05-05T09:46:09.843Z,21.52
2023-05-05T09:49:15.904Z,21.74
2023-05-05T09:52:19.075Z,21.85
2023-05-05T09:55:23.594Z,21.96
2023-05-05T09:58:28.270Z,21.52
2023-05-05T10:01:31.379Z,21.41
2023-05-05T10:04:34.478Z,21.68
2023-05-05T10:07:38.583Z,22.09
2023-05-05T10:10:49.501Z,22.01
2023-05-05T10:13:52.516Z,22.11
2023-05-05T10:16:55.710Z,22.35
2023-05-05T10:20:01.175Z,22.18
2023-05-05T10:23:08.232Z,22.39
2023-05-05T10:26:14.117Z,22.31
2023-05-05T10:29:33.637Z,22.50
2023-05-05T10:33:04.129Z,22.57
2023-05-05T10:36:12.497Z,22.42
2023-05-05T10:39:19.788Z,22.72
2023-05-05T10:42:24.230Z,23.06
2023-05-05T10:45:27.496Z,23.63
2023-05-05T10:48:47.057Z,23.92
2023-05-05T10:51:49.681Z,24.11
2023-05-05T10:55:04.746Z,24.22
2023-05-05T10:58:07.363Z,24.15
2023-05-05T11:01:10.403Z,23.65
2023-05-05T11:04:20.331Z,23.44
2023-05-05T11:07:24.133Z,23.53
2023-05-05T11:10:26.850Z,24.01
2023-05-05T11:13:30.565Z,24.48
2023-05-05T11:16:44.404Z,25.03
2023-05-05T11:19:48.461Z,24.36
2023-05-05T11:23:05.469Z,24.29
2023-05-05T11:26:09.297Z,24.58
2023-05-05T11:29:11.977Z,25.31
2023-05-05T11:32:18.222Z,24.92
2023-05-05T11:35:21.084Z,25.34
2023-05-05T11:38:56.485Z,26.11
2023-05-05T11:42:20.252Z,26.41
2023-05-05T11:45:24.918Z,26.37
2023-05-05T11:48:27.664Z,26.27
2023-05-05T11:51:31.580Z,26.37
2023-05-05T11:54:41.614Z,27.24
2023-05-05T11:57:44.446Z,27.97
2023-05-05T12:00:48.096Z,29.09
2023-05-05T12:03:51.299Z,29.60
2023-05-05T12:06:55.416Z,30.59
2023-05-05T12:09:58.468Z,31.65
2023-05-05T12:13:01.145Z,32.29
2023-05-05T12:16:15.377Z,33.28
2023-05-05T12:19:18.320Z,35.35
2023-05-05T12:22:23.885Z,36.90
2023-05-05T12:25:34.832Z,37.72
2023-05-05T12:28:47.949Z,37.73
2023-05-05T12:31:51.148Z,38.71
2023-05-05T12:34:57.406Z,39.30
2023-05-05T12:38:00.283Z,39.67
2023-05-05T12:41:03.288Z,40.38
2023-05-05T12:44:06.675Z,41.79
2023-05-05T12:47:09.896Z,42.39
2023-05-05T12:50:12.580Z,42.16
2023-05-05T12:53:25.721Z,40.79
2023-05-05T12:56:39.816Z,41.20
2023-05-05T12:59:43.331Z,40.99
2023-05-05T13:02:46.160Z,40.62
2023-05-05T13:05:49.220Z,40.08
2023-05-05T13:08:51.890Z,40.75
2023-05-05T13:11:54.972Z,41.79
2023-05-05T13:14:57.582Z,41.40
2023-05-05T13:18:01.611Z,41.42
2023-05-05T13:21:04.643Z,41.13
2023-05-05T13:24:23.466Z,40.12
2023-05-05T13:27:29.016Z,39.53
2023-05-05T13:30:31.877Z,40.02
2023-05-05T13:33:35.044Z,41.06
2023-05-05T13:36:38.805Z,41.53
2023-05-05T13:39:41.556Z,43.13
2023-05-05T13:42:44.498Z,45.21
2023-05-05T13:45:47.334Z,47.40
2023-05-05T13:48:52.500Z,45.34
2023-05-05T13:51:58.722Z,44.65
2023-05-05T13:55:01.861Z,45.13
2023-05-05T13:58:04.613Z,45.99
2023-05-05T14:01:07.711Z,45.04
2023-05-05T14:04:10.777Z,44.80
2023-05-05T14:07:13.388Z,45.25
2023-05-05T14:10:16.360Z,45.50
2023-05-05T14:13:19.336Z,44.99
2023-05-05T14:16:22.252Z,46.62
2023-05-05T14:19:24.929Z,45.86
2023-05-05T14:22:27.765Z,45.30
2023-05-05T14:25:30.481Z,45.94
2023-05-05T14:28:33.438Z,45.54
2023-05-05T14:31:36.739Z,47.33
2023-05-05T14:34:39.774Z,49.52
2023-05-05T14:37:42.339Z,49.52
2023-05-05T14:40:45.297Z,48.10
2023-05-05T14:43:47.904Z,46.38
2023-05-05T14:46:51.282Z,46.75
2023-05-05T14:49:53.944Z,48.35
2023-05-05T14:52:56.792Z,47.52
2023-05-05T14:56:01.309Z,47.79
2023-05-05T14:59:04.181Z,48.15
2023-05-05T15:02:07.062Z,48.56
2023-05-05T15:05:10.676Z,48.85
2023-05-05T15:08:14.608Z,49.80
2023-05-05T15:11:17.456Z,47.73
2023-05-05T15:14:20.230Z,46.73
2023-05-05T15:17:23.217Z,45.67
2023-05-05T15:20:25.998Z,44.20
2023-05-05T15:23:28.887Z,43.76
2023-05-05T15:26:31.915Z,44.77
